Time,TemperatureF,DewpointF,PressureIn,WindDirection,WindDirectionDegrees,WindSpeedMPH,WindSpeedGustMPH,Humidity,HourlyPrecipIn,Conditions,Clouds,dailyrainin,SoftwareType,DateUTC
2013-03-19 00:00:00,5.7,0.3,30.34,WNW,292,0.0,1.0,78,0.00,,,0.00,meteohub,2013-03-19 04:00:00,
2013-03-19 00:02:00,5.7,0.3,30.34,WNW,292,1.0,1.0,78,0.00,,,0.00,meteohub,2013-03-19 04:02:00,
2013-03-19 00:03:00,5.7,0.3,30.34,WNW,292,1.0,1.0,78,0.00,,,0.00,meteohub,2013-03-19 04:03:00,
2013-03-19 00:08:00,5.5,0.1,30.34,West,260,0.0,1.0,78,0.00,,,0.00,meteohub,2013-03-19 04:08:00,
2013-03-19 00:13:00,5.5,0.5,30.34,West,260,0.0,3.0,79,0.00,,,0.00,meteohub,2013-03-19 04:13:00,
2013-03-19 00:18:00,5.4,0.3,30.33,West,260,0.0,3.0,79,0.00,,,0.00,meteohub,2013-03-19 04:18:00,
2013-03-19 00:24:00,5.2,0.1,30.33,West,260,0.0,2.0,79,0.00,,,0.00,meteohub,2013-03-19 04:24:00,
2013-03-19 00:29:00,4.8,-0.2,30.33,West,260,0.0,0.0,79,0.00,,,0.00,meteohub,2013-03-19 04:29:00,
2013-03-19 00:34:00,4.8,0.0,30.32,West,260,0.0,0.0,80,0.00,,,0.00,meteohub,2013-03-19 04:34:00,
2013-03-19 00:39:00,4.6,-0.2,30.32,West,260,0.0,0.0,80,0.00,,,0.00,meteohub,2013-03-19 04:39:00,
2013-03-19 00:44:00,4.6,-0.2,30.32,West,260,0.0,0.0,80,0.00,,,0.00,meteohub,2013-03-19 04:44:00,
2013-03-19 00:49:00,4.3,-0.6,30.32,West,260,0.0,0.0,80,0.00,,,0.00,meteohub,2013-03-19 04:49:00,
2013-03-19 00:55:00,4.3,-0.6,30.33,West,260,0.0,0.0,80,0.00,,,0.00,meteohub,2013-03-19 04:55:00,
2013-03-19 01:00:00,4.1,-0.8,30.33,West,260,0.0,0.0,80,0.00,,,0.00,meteohub,2013-03-19 05:00:00,
2013-03-19 01:05:00,3.9,-0.9,30.33,West,260,0.0,0.0,80,0.00,,,0.00,meteohub,2013-03-19 05:05:00,
2013-03-19 01:10:00,3.9,-0.9,30.33,West,260,0.0,0.0,80,0.00,,,0.00,meteohub,2013-03-19 05:10:00,
2013-03-19 01:16:00,3.9,-0.6,30.34,West,260,0.0,1.0,81,0.00,,,0.00,meteohub,2013-03-19 05:16:00,
2013-03-19 01:21:00,3.9,-0.4,30.34,West,260,0.0,1.0,82,0.00,,,0.00,meteohub,2013-03-19 05:21:00,
2013-03-19 01:27:00,3.7,-0.6,30.35,West,260,0.0,1.0,82,0.00,,,0.00,meteohub,2013-03-19 05:27:00,
2013-03-19 01:32:00,3.7,-0.2,30.36,West,260,1.0,1.0,83,0.00,,,0.00,meteohub,2013-03-19 05:32:00,
2013-03-19 01:37:00,3.6,-0.9,30.36,WSW,254,0.0,2.0,81,0.00,,,0.00,meteohub,2013-03-19 05:37:00,
2013-03-19 01:42:00,3.6,-0.8,30.35,WSW,254,0.0,2.0,82,0.00,,,0.00,meteohub,2013-03-19 05:42:00,
2013-03-19 01:47:00,3.6,-0.4,30.35,WSW,254,0.0,2.0,83,0.00,,,0.00,meteohub,2013-03-19 05:47:00,
2013-03-19 01:53:00,3.4,-0.6,30.35,WSW,254,0.0,2.0,83,0.00,,,0.00,meteohub,2013-03-19 05:53:00,
2013-03-19 01:58:00,3.4,-0.6,30.34,WSW,254,0.0,0.0,83,0.00,,,0.00,meteohub,2013-03-19 05:58:00,
2013-03-19 02:03:00,3.4,-0.6,30.34,WSW,252,0.0,0.0,83,0.00,,,0.00,meteohub,2013-03-19 06:03:00,
2013-03-19 02:09:00,3.2,-0.6,30.34,WSW,252,1.0,2.0,84,0.00,,,0.00,meteohub,2013-03-19 06:09:00,
2013-03-19 02:14:00,3.0,-0.9,30.33,WSW,253,0.0,2.0,83,0.00,,,0.00,meteohub,2013-03-19 06:14:00,
2013-03-19 02:20:00,2.8,-1.1,30.33,WSW,253,1.0,2.0,83,0.00,,,0.00,meteohub,2013-03-19 06:20:00,
2013-03-19 02:26:00,2.8,-0.9,30.33,WSW,253,0.0,2.0,84,0.00,,,0.00,meteohub,2013-03-19 06:26:00,
2013-03-19 02:32:00,2.7,-1.1,30.33,WSW,253,0.0,2.0,84,0.00,,,0.00,meteohub,2013-03-19 06:32:00,
2013-03-19 02:37:00,2.7,-1.1,30.33,WSW,253,0.0,0.0,84,0.00,,,0.00,meteohub,2013-03-19 06:37:00,
2013-03-19 02:42:00,2.7,-1.1,30.33,WSW,253,0.0,0.0,84,0.00,,,0.00,meteohub,2013-03-19 06:42:00,
2013-03-19 02:47:00,2.5,-1.3,30.33,WSW,253,0.0,1.0,84,0.00,,,0.00,meteohub,2013-03-19 06:47:00,
2013-03-19 02:52:00,2.5,-1.3,30.32,WSW,253,0.0,1.0,84,0.00,,,0.00,meteohub,2013-03-19 06:52:00,
2013-03-19 02:57:00,2.3,-1.5,30.32,WSW,253,0.0,1.0,84,0.00,,,0.00,meteohub,2013-03-19 06:57:00,
2013-03-19 03:02:00,2.1,-1.7,30.32,WSW,253,0.0,0.0,84,0.00,,,0.00,meteohub,2013-03-19 07:02:00,
2013-03-19 03:07:00,2.1,-1.7,30.32,WSW,253,0.0,1.0,84,0.00,,,0.00,meteohub,2013-03-19 07:07:00,
2013-03-19 03:12:00,2.1,-1.7,30.32,WSW,253,0.0,1.0,84,0.00,,,0.00,meteohub,2013-03-19 07:12:00,
2013-03-19 03:17:00,2.1,-1.3,30.32,WSW,253,0.0,1.0,85,0.00,,,0.00,meteohub,2013-03-19 07:17:00,
2013-03-19 03:22:00,2.1,-1.7,30.31,WSW,253,0.0,1.0,84,0.00,,,0.00,meteohub,2013-03-19 07:22:00,
2013-03-19 03:27:00,1.9,-1.8,30.31,WSW,253,0.0,1.0,84,0.00,,,0.00,meteohub,2013-03-19 07:27:00,
2013-03-19 03:32:00,2.1,-1.7,30.31,WSW,253,0.0,0.0,84,0.00,,,0.00,meteohub,2013-03-19 07:32:00,
2013-03-19 03:37:00,2.1,-1.3,30.31,WSW,253,0.0,1.0,85,0.00,,,0.00,meteohub,2013-03-19 07:37:00,
2013-03-19 03:42:00,2.3,-1.1,30.31,WSW,253,0.0,1.0,85,0.00,,,0.00,meteohub,2013-03-19 07:42:00,
2013-03-19 03:47:00,2.5,-0.8,30.31,WSW,253,0.0,1.0,86,0.00,,,0.00,meteohub,2013-03-19 07:47:00,
2013-03-19 03:52:00,2.5,-0.8,30.31,WSW,253,0.0,1.0,86,0.00,,,0.00,meteohub,2013-03-19 07:52:00,
2013-03-19 03:58:00,2.3,-0.9,30.31,WSW,253,0.0,1.0,86,0.00,,,0.00,meteohub,2013-03-19 07:58:00,
2013-03-19 04:03:00,2.3,-0.9,30.31,WSW,253,0.0,0.0,86,0.00,,,0.00,meteohub,2013-03-19 08:03:00,
2013-03-19 04:08:00,2.3,-0.9,30.32,WSW,253,0.0,1.0,86,0.00,,,0.00,meteohub,2013-03-19 08:08:00,
2013-03-19 04:13:00,2.5,-0.8,30.32,WSW,253,0.0,1.0,86,0.00,,,0.00,meteohub,2013-03-19 08:13:00,
2013-03-19 04:18:00,2.5,-0.8,30.32,WSW,253,0.0,1.0,86,0.00,,,0.00,meteohub,2013-03-19 08:18:00,
2013-03-19 04:24:00,2.5,-0.8,30.31,WSW,253,0.0,1.0,86,0.00,,,0.00,meteohub,2013-03-19 08:24:00,
2013-03-19 04:29:00,2.5,-0.8,30.32,WSW,253,0.0,1.0,86,0.00,,,0.00,meteohub,2013-03-19 08:29:00,
2013-03-19 04:34:00,2.5,-0.8,30.32,WSW,253,0.0,1.0,86,0.00,,,0.00,meteohub,2013-03-19 08:34:00,
2013-03-19 04:39:00,2.5,-0.8,30.32,WSW,253,0.0,0.0,86,0.00,,,0.00,meteohub,2013-03-19 08:39:00,
2013-03-19 04:45:00,2.5,-0.8,30.32,WSW,253,0.0,0.0,86,0.00,,,0.00,meteohub,2013-03-19 08:45:00,
2013-03-19 04:50:00,2.5,-0.8,30.31,WSW,253,0.0,0.0,86,0.00,,,0.00,meteohub,2013-03-19 08:50:00,
2013-03-19 04:55:00,2.5,-0.8,30.31,WSW,253,0.0,0.0,86,0.00,,,0.00,meteohub,2013-03-19 08:55:00,
2013-03-19 05:01:00,2.5,-0.8,30.31,WSW,253,0.0,0.0,86,0.00,,,0.00,meteohub,2013-03-19 09:01:00,
2013-03-19 05:06:00,2.7,-0.6,30.31,WSW,253,0.0,0.0,86,0.00,,,0.00,meteohub,2013-03-19 09:06:00,
2013-03-19 05:11:00,2.7,-0.6,30.30,WSW,253,0.0,0.0,86,0.00,,,0.00,meteohub,2013-03-19 09:11:00,
2013-03-19 05:16:00,2.7,-0.8,30.30,WSW,253,0.0,0.0,85,0.00,,,0.00,meteohub,2013-03-19 09:16:00,
2013-03-19 05:22:00,2.7,-0.6,30.30,WSW,253,0.0,0.0,86,0.00,,,0.00,meteohub,2013-03-19 09:22:00,
2013-03-19 05:27:00,2.7,-0.8,30.30,WSW,253,0.0,0.0,85,0.00,,,0.00,meteohub,2013-03-19 09:27:00,
2013-03-19 05:32:00,2.7,-0.8,30.30,WSW,253,0.0,0.0,85,0.00,,,0.00,meteohub,2013-03-19 09:32:00,
2013-03-19 05:37:00,2.7,-0.8,30.30,WSW,253,0.0,0.0,85,0.00,,,0.00,meteohub,2013-03-19 09:37:00,
2013-03-19 05:42:00,2.7,-0.8,30.30,WSW,253,0.0,0.0,85,0.00,,,0.00,meteohub,2013-03-19 09:42:00,
2013-03-19 05:47:00,2.7,-0.8,30.30,WSW,253,0.0,1.0,85,0.00,,,0.00,meteohub,2013-03-19 09:47:00,
2013-03-19 05:52:00,2.7,-0.8,30.29,WSW,253,0.0,1.0,85,0.00,,,0.00,meteohub,2013-03-19 09:52:00,
2013-03-19 05:57:00,2.7,-0.8,30.29,WSW,253,0.0,1.0,85,0.00,,,0.00,meteohub,2013-03-19 09:57:00,
2013-03-19 06:02:00,2.7,-0.8,30.29,WSW,253,0.0,1.0,85,0.00,,,0.00,meteohub,2013-03-19 10:02:00,
2013-03-19 06:07:00,2.7,-0.8,30.30,WSW,253,0.0,1.0,85,0.00,,,0.00,meteohub,2013-03-19 10:07:00,
2013-03-19 06:13:00,2.7,-0.6,30.30,WSW,253,0.0,1.0,86,0.00,,,0.00,meteohub,2013-03-19 10:13:00,
2013-03-19 06:18:00,2.7,-0.8,30.30,WSW,253,0.0,0.0,85,0.00,,,0.00,meteohub,2013-03-19 10:18:00,
2013-03-19 06:23:00,2.7,-0.8,30.30,WSW,253,0.0,0.0,85,0.00,,,0.00,meteohub,2013-03-19 10:23:00,
2013-03-19 06:28:00,2.7,-0.8,30.30,WSW,253,0.0,0.0,85,0.00,,,0.00,meteohub,2013-03-19 10:28:00,
2013-03-19 06:33:00,2.7,-0.6,30.30,WSW,253,0.0,0.0,86,0.00,,,0.00,meteohub,2013-03-19 10:33:00,
2013-03-19 06:39:00,2.8,-0.4,30.30,WSW,253,0.0,1.0,86,0.00,,,0.00,meteohub,2013-03-19 10:39:00,
2013-03-19 06:44:00,2.8,-0.4,30.31,WSW,253,0.0,1.0,86,0.00,,,0.00,meteohub,2013-03-19 10:44:00,
2013-03-19 06:49:00,2.8,-0.4,30.31,WSW,253,0.0,0.0,86,0.00,,,0.00,meteohub,2013-03-19 10:49:00,
2013-03-19 06:54:00,2.7,-0.8,30.31,WSW,253,0.0,1.0,85,0.00,,,0.00,meteohub,2013-03-19 10:54:00,
2013-03-19 06:59:00,2.7,-0.8,30.31,WSW,253,0.0,1.0,85,0.00,,,0.00,meteohub,2013-03-19 10:59:00,
2013-03-19 07:04:00,2.8,-0.4,30.30,WSW,253,0.0,1.0,86,0.00,,,0.00,meteohub,2013-03-19 11:04:00,
2013-03-19 07:10:00,2.7,-0.8,30.30,WSW,252,0.0,1.0,85,0.00,,,0.00,meteohub,2013-03-19 11:10:00,
2013-03-19 07:15:00,2.8,-0.6,30.30,WSW,252,0.0,2.0,85,0.00,,,0.00,meteohub,2013-03-19 11:15:00,
2013-03-19 07:20:00,3.0,-0.4,30.29,WSW,252,0.0,1.0,85,0.00,,,0.00,meteohub,2013-03-19 11:20:00,
2013-03-19 07:26:00,3.2,-0.2,30.29,WSW,252,0.0,0.0,85,0.00,,,0.00,meteohub,2013-03-19 11:26:00,
2013-03-19 07:31:00,3.6,0.3,30.29,WSW,252,0.0,1.0,86,0.00,,,0.00,meteohub,2013-03-19 11:31:00,
2013-03-19 07:36:00,3.7,0.5,30.30,WSW,252,0.0,1.0,86,0.00,,,0.00,meteohub,2013-03-19 11:36:00,
2013-03-19 07:41:00,4.1,0.9,30.30,WSW,252,0.0,1.0,86,0.00,,,0.00,meteohub,2013-03-19 11:41:00,
2013-03-19 07:46:00,4.5,1.2,30.30,WSW,252,0.0,0.0,86,0.00,,,0.00,meteohub,2013-03-19 11:46:00,
2013-03-19 07:52:00,4.8,1.2,30.30,WSW,252,0.0,0.0,85,0.00,,,0.00,meteohub,2013-03-19 11:52:00,
2013-03-19 07:57:00,5.2,1.4,30.30,WSW,252,0.0,0.0,84,0.00,,,0.00,meteohub,2013-03-19 11:57:00,
2013-03-19 08:02:00,5.5,1.8,30.30,WSW,252,0.0,0.0,84,0.00,,,0.00,meteohub,2013-03-19 12:02:00,
2013-03-19 08:07:00,5.7,1.9,30.31,WSW,252,0.0,0.0,84,0.00,,,0.00,meteohub,2013-03-19 12:07:00,
2013-03-19 08:12:00,6.1,2.1,30.31,WSW,252,0.0,0.0,83,0.00,,,0.00,meteohub,2013-03-19 12:12:00,
2013-03-19 08:17:00,6.4,2.1,30.31,WSW,252,0.0,0.0,82,0.00,,,0.00,meteohub,2013-03-19 12:17:00,
2013-03-19 08:22:00,6.6,2.5,30.30,WSW,252,0.0,1.0,83,0.00,,,0.00,meteohub,2013-03-19 12:22:00,
2013-03-19 08:27:00,7.2,3.0,30.30,WSW,252,0.0,1.0,83,0.00,,,0.00,meteohub,2013-03-19 12:27:00,
2013-03-19 08:33:00,7.9,3.7,30.30,WSW,252,0.0,1.0,83,0.00,,,0.00,meteohub,2013-03-19 12:33:00,
2013-03-19 08:38:00,8.2,4.1,30.30,WSW,252,0.0,1.0,83,0.00,,,0.00,meteohub,2013-03-19 12:38:00,
2013-03-19 08:43:00,8.8,4.5,30.30,WSW,252,0.0,0.0,82,0.00,,,0.00,meteohub,2013-03-19 12:43:00,
2013-03-19 08:49:00,9.0,4.6,30.30,WSW,252,0.0,1.0,82,0.00,,,0.00,meteohub,2013-03-19 12:49:00,
2013-03-19 08:54:00,9.3,4.6,30.30,WSW,257,0.0,1.0,81,0.00,,,0.00,meteohub,2013-03-19 12:54:00,
2013-03-19 08:59:00,9.9,5.2,30.30,WSW,257,0.0,1.0,81,0.00,,,0.00,meteohub,2013-03-19 12:59:00,
2013-03-19 09:04:00,10.2,5.4,30.30,WSW,257,0.0,1.0,80,0.00,,,0.00,meteohub,2013-03-19 13:04:00,
2013-03-19 09:09:00,10.9,5.7,30.30,WSW,257,0.0,2.0,79,0.00,,,0.00,meteohub,2013-03-19 13:09:00,
2013-03-19 09:14:00,11.5,5.7,30.29,WSW,257,1.0,2.0,77,0.00,,,0.00,meteohub,2013-03-19 13:14:00,
2013-03-19 09:20:00,12.0,5.5,30.29,WSW,255,0.0,2.0,75,0.00,,,0.00,meteohub,2013-03-19 13:20:00,
2013-03-19 09:25:00,12.6,5.2,30.29,SSE,147,0.0,2.0,72,0.00,,,0.00,meteohub,2013-03-19 13:25:00,
2013-03-19 09:30:00,13.8,5.2,30.28,ESE,107,4.0,7.0,68,0.00,,,0.00,meteohub,2013-03-19 13:30:00,
2013-03-19 09:35:00,14.5,5.0,30.28,SE,132,1.0,7.0,65,0.00,,,0.00,meteohub,2013-03-19 13:35:00,
2013-03-19 09:41:00,15.1,5.2,30.28,South,185,3.0,7.0,64,0.00,,,0.00,meteohub,2013-03-19 13:41:00,
2013-03-19 09:46:00,15.4,4.8,30.27,ESE,119,5.0,5.0,62,0.00,,,0.00,meteohub,2013-03-19 13:46:00,
2013-03-19 09:51:00,15.8,4.8,30.27,ESE,108,7.0,7.0,61,0.00,,,0.00,meteohub,2013-03-19 13:51:00,
2013-03-19 09:56:00,15.8,4.1,30.27,ESE,121,11.0,12.0,59,0.00,,,0.00,meteohub,2013-03-19 13:56:00,
2013-03-19 10:02:00,15.8,3.6,30.26,ESE,115,7.0,12.0,58,0.00,,,0.00,meteohub,2013-03-19 14:02:00,
2013-03-19 10:07:00,15.8,3.6,30.27,ESE,107,2.0,12.0,58,0.00,,,0.00,meteohub,2013-03-19 14:07:00,
2013-03-19 10:12:00,16.0,3.7,30.26,SE,130,9.0,12.0,58,0.00,,,0.00,meteohub,2013-03-19 14:12:00,
2013-03-19 10:17:00,16.0,3.4,30.26,ESE,115,7.0,12.0,57,0.00,,,0.00,meteohub,2013-03-19 14:17:00,
2013-03-19 10:22:00,16.0,3.4,30.26,South,185,2.0,11.0,57,0.00,,,0.00,meteohub,2013-03-19 14:22:00,
2013-03-19 10:27:00,16.2,3.6,30.25,ESE,111,0.0,11.0,57,0.00,,,0.00,meteohub,2013-03-19 14:27:00,
2013-03-19 10:33:00,16.5,4.3,30.25,SE,138,6.0,8.0,58,0.00,,,0.00,meteohub,2013-03-19 14:33:00,
2013-03-19 10:38:00,16.9,4.3,30.25,ESE,108,3.0,8.0,57,0.00,,,0.00,meteohub,2013-03-19 14:38:00,
2013-03-19 10:43:00,17.2,4.6,30.25,ESE,123,3.0,8.0,57,0.00,,,0.00,meteohub,2013-03-19 14:43:00,
2013-03-19 10:49:00,17.6,5.0,30.25,ENE,76,7.0,7.0,57,0.00,,,0.00,meteohub,2013-03-19 14:49:00,
2013-03-19 10:54:00,17.8,5.5,30.24,ESE,113,4.0,8.0,58,0.00,,,0.00,meteohub,2013-03-19 14:54:00,
2013-03-19 10:59:00,18.0,5.0,30.24,ESE,114,4.0,9.0,56,0.00,,,0.00,meteohub,2013-03-19 14:59:00,
2013-03-19 11:04:00,18.0,4.5,30.23,ESE,119,2.0,9.0,55,0.00,,,0.00,meteohub,2013-03-19 15:04:00,
2013-03-19 11:09:00,18.0,5.0,30.23,SSE,155,4.0,8.0,56,0.00,,,0.00,meteohub,2013-03-19 15:09:00,
2013-03-19 11:15:00,18.3,4.5,30.23,ESE,119,3.0,7.0,54,0.00,,,0.00,meteohub,2013-03-19 15:15:00,
2013-03-19 11:20:00,18.7,3.9,30.22,ESE,116,8.0,8.0,52,0.00,,,0.00,meteohub,2013-03-19 15:20:00,
2013-03-19 11:26:00,18.7,5.2,30.22,ESE,103,7.0,8.0,55,0.00,,,0.00,meteohub,2013-03-19 15:26:00,
2013-03-19 11:31:00,18.9,4.1,30.22,ESE,120,4.0,8.0,52,0.00,,,0.00,meteohub,2013-03-19 15:31:00,
2013-03-19 11:36:00,19.0,3.9,30.21,SE,127,2.0,8.0,51,0.00,,,0.00,meteohub,2013-03-19 15:36:00,
2013-03-19 11:41:00,19.6,4.5,30.21,ESE,119,3.0,8.0,51,0.00,,,0.00,meteohub,2013-03-19 15:41:00,
2013-03-19 11:46:00,19.8,3.7,30.21,ESE,104,3.0,7.0,49,0.00,,,0.00,meteohub,2013-03-19 15:46:00,
2013-03-19 11:52:00,19.9,4.3,30.21,SE,133,3.0,8.0,50,0.00,,,0.00,meteohub,2013-03-19 15:52:00,
2013-03-19 11:57:00,20.1,4.1,30.20,ENE,68,4.0,8.0,49,0.00,,,0.00,meteohub,2013-03-19 15:57:00,
2013-03-19 12:02:00,20.7,4.1,30.20,East,90,3.0,7.0,48,0.00,,,0.00,meteohub,2013-03-19 16:02:00,
2013-03-19 12:07:00,20.8,3.7,30.19,East,101,5.0,10.0,47,0.00,,,0.00,meteohub,2013-03-19 16:07:00,
2013-03-19 12:12:00,21.0,3.9,30.19,ESE,121,13.0,13.0,47,0.00,,,0.00,meteohub,2013-03-19 16:12:00,
2013-03-19 12:18:00,21.0,4.5,30.18,ESE,111,3.0,13.0,48,0.00,,,0.00,meteohub,2013-03-19 16:18:00,
2013-03-19 12:23:00,21.4,4.8,30.18,ESE,115,2.0,13.0,48,0.00,,,0.00,meteohub,2013-03-19 16:23:00,
2013-03-19 12:28:00,21.6,5.7,30.18,SE,140,7.0,13.0,50,0.00,,,0.00,meteohub,2013-03-19 16:28:00,
2013-03-19 12:33:00,21.6,4.8,30.17,ENE,59,4.0,13.0,48,0.00,,,0.00,meteohub,2013-03-19 16:33:00,
2013-03-19 12:38:00,21.7,5.0,30.18,ESE,123,1.0,13.0,48,0.00,,,0.00,meteohub,2013-03-19 16:38:00,
2013-03-19 12:44:00,21.9,5.2,30.17,ENE,72,7.0,10.0,48,0.00,,,0.00,meteohub,2013-03-19 16:44:00,
2013-03-19 12:49:00,21.6,4.8,30.16,East,80,5.0,10.0,48,0.00,,,0.00,meteohub,2013-03-19 16:49:00,
2013-03-19 12:54:00,21.4,4.8,30.16,SE,126,3.0,10.0,48,0.00,,,0.00,meteohub,2013-03-19 16:54:00,
2013-03-19 12:59:00,21.6,4.8,30.17,ENE,76,5.0,10.0,48,0.00,,,0.00,meteohub,2013-03-19 16:59:00,
2013-03-19 13:04:00,21.9,5.2,30.16,ENE,75,3.0,9.0,48,0.00,,,0.00,meteohub,2013-03-19 17:04:00,
2013-03-19 13:10:00,21.9,4.8,30.15,ENE,71,3.0,8.0,47,0.00,,,0.00,meteohub,2013-03-19 17:10:00,
2013-03-19 13:15:00,22.3,5.5,30.15,ENE,63,4.0,9.0,48,0.00,,,0.00,meteohub,2013-03-19 17:15:00,
2013-03-19 13:20:00,22.5,6.3,30.15,East,101,2.0,9.0,49,0.00,,,0.00,meteohub,2013-03-19 17:20:00,
2013-03-19 13:25:00,22.5,4.8,30.15,East,84,3.0,9.0,46,0.00,,,0.00,meteohub,2013-03-19 17:25:00,
2013-03-19 13:30:00,22.6,5.0,30.14,ENE,73,4.0,9.0,46,0.00,,,0.00,meteohub,2013-03-19 17:30:00,
2013-03-19 13:36:00,22.8,4.6,30.14,East,81,6.0,9.0,45,0.00,,,0.00,meteohub,2013-03-19 17:36:00,
2013-03-19 13:41:00,22.6,5.0,30.14,East,82,1.0,11.0,46,0.00,,,0.00,meteohub,2013-03-19 17:41:00,
2013-03-19 13:46:00,23.0,4.8,30.14,ESE,107,5.0,11.0,45,0.00,,,0.00,meteohub,2013-03-19 17:46:00,
2013-03-19 13:52:00,23.2,5.0,30.14,ESE,105,5.0,11.0,45,0.00,,,0.00,meteohub,2013-03-19 17:52:00,
2013-03-19 13:57:00,23.4,5.5,30.13,ESE,114,2.0,12.0,46,0.00,,,0.00,meteohub,2013-03-19 17:57:00,
2013-03-19 14:02:00,23.4,4.1,30.13,East,96,2.0,12.0,43,0.00,,,0.00,meteohub,2013-03-19 18:02:00,
2013-03-19 14:07:00,23.5,4.3,30.12,ENE,75,5.0,10.0,43,0.00,,,0.00,meteohub,2013-03-19 18:07:00,
2013-03-19 14:12:00,23.7,4.5,30.12,East,89,2.0,12.0,43,0.00,,,0.00,meteohub,2013-03-19 18:12:00,
2013-03-19 14:17:00,23.9,4.1,30.12,SE,132,5.0,12.0,42,0.00,,,0.00,meteohub,2013-03-19 18:17:00,
2013-03-19 14:22:00,23.9,3.6,30.12,East,101,7.0,12.0,41,0.00,,,0.00,meteohub,2013-03-19 18:22:00,
2013-03-19 14:27:00,24.1,3.7,30.12,ESE,114,0.0,13.0,41,0.00,,,0.00,meteohub,2013-03-19 18:27:00,
2013-03-19 14:32:00,24.3,4.5,30.11,ESE,108,7.0,13.0,42,0.00,,,0.00,meteohub,2013-03-19 18:32:00,
2013-03-19 14:37:00,24.4,4.1,30.10,ESE,116,7.0,13.0,41,0.00,,,0.00,meteohub,2013-03-19 18:37:00,
2013-03-19 14:43:00,24.4,4.1,30.10,ESE,103,8.0,10.0,41,0.00,,,0.00,meteohub,2013-03-19 18:43:00,
2013-03-19 14:48:00,24.4,4.6,30.10,ESE,120,7.0,10.0,42,0.00,,,0.00,meteohub,2013-03-19 18:48:00,
2013-03-19 14:54:00,24.4,4.1,30.09,ENE,70,11.0,13.0,41,0.00,,,0.00,meteohub,2013-03-19 18:54:00,
2013-03-19 14:59:00,24.6,4.3,30.09,East,90,3.0,13.0,41,0.00,,,0.00,meteohub,2013-03-19 18:59:00,
2013-03-19 15:04:00,25.0,5.7,30.09,East,92,9.0,13.0,43,0.00,,,0.00,meteohub,2013-03-19 19:04:00,
2013-03-19 15:09:00,25.0,4.6,30.10,ENE,67,5.0,13.0,41,0.00,,,0.00,meteohub,2013-03-19 19:09:00,
2013-03-19 15:14:00,25.2,5.4,30.09,SE,131,1.0,13.0,42,0.00,,,0.00,meteohub,2013-03-19 19:14:00,
2013-03-19 15:19:00,25.3,5.4,30.09,SE,133,8.0,11.0,42,0.00,,,0.00,meteohub,2013-03-19 19:19:00,
2013-03-19 15:24:00,25.5,6.1,30.09,ESE,121,4.0,11.0,43,0.00,,,0.00,meteohub,2013-03-19 19:24:00,
2013-03-19 15:30:00,25.7,5.7,30.08,SE,132,2.0,11.0,42,0.00,,,0.00,meteohub,2013-03-19 19:30:00,
2013-03-19 15:35:00,26.1,6.6,30.08,ESE,115,5.0,10.0,43,0.00,,,0.00,meteohub,2013-03-19 19:35:00,
2013-03-19 15:40:00,26.1,5.5,30.08,ENE,72,4.0,9.0,41,0.00,,,0.00,meteohub,2013-03-19 19:40:00,
2013-03-19 15:45:00,26.1,5.5,30.07,SE,130,1.0,11.0,41,0.00,,,0.00,meteohub,2013-03-19 19:45:00,
2013-03-19 15:50:00,26.1,5.5,30.07,SE,134,8.0,11.0,41,0.00,,,0.00,meteohub,2013-03-19 19:50:00,
2013-03-19 15:55:00,26.1,6.1,30.07,ESE,115,10.0,11.0,42,0.00,,,0.00,meteohub,2013-03-19 19:55:00,
2013-03-19 16:00:00,26.2,5.2,30.07,ENE,74,11.0,11.0,40,0.00,,,0.00,meteohub,2013-03-19 20:00:00,
2013-03-19 16:05:00,26.1,5.0,30.06,SSE,148,2.0,14.0,40,0.00,,,0.00,meteohub,2013-03-19 20:05:00,
2013-03-19 16:10:00,26.2,6.3,30.06,ESE,103,5.0,14.0,42,0.00,,,0.00,meteohub,2013-03-19 20:10:00,
2013-03-19 16:16:00,26.4,5.4,30.06,SE,128,5.0,13.0,40,0.00,,,0.00,meteohub,2013-03-19 20:16:00,
2013-03-19 16:21:00,26.4,5.4,30.05,ESE,107,10.0,10.0,40,0.00,,,0.00,meteohub,2013-03-19 20:21:00,
2013-03-19 16:26:00,26.4,5.9,30.05,ESE,119,2.0,12.0,41,0.00,,,0.00,meteohub,2013-03-19 20:26:00,
2013-03-19 16:32:00,26.6,5.5,30.04,ESE,120,5.0,13.0,40,0.00,,,0.00,meteohub,2013-03-19 20:32:00,
2013-03-19 16:37:00,26.8,6.8,30.04,SE,137,4.0,13.0,42,0.00,,,0.00,meteohub,2013-03-19 20:37:00,
2013-03-19 16:42:00,26.8,5.7,30.04,ESE,117,4.0,13.0,40,0.00,,,0.00,meteohub,2013-03-19 20:42:00,
2013-03-19 16:47:00,26.8,6.8,30.04,ENE,76,5.0,10.0,42,0.00,,,0.00,meteohub,2013-03-19 20:47:00,
2013-03-19 16:52:00,26.8,6.8,30.04,NE,51,3.0,10.0,42,0.00,,,0.00,meteohub,2013-03-19 20:52:00,
2013-03-19 16:57:00,26.8,6.8,30.03,ESE,106,2.0,10.0,42,0.00,,,0.00,meteohub,2013-03-19 20:57:00,
2013-03-19 17:02:00,26.8,6.8,30.04,SE,127,3.0,9.0,42,0.00,,,0.00,meteohub,2013-03-19 21:02:00,
2013-03-19 17:07:00,26.8,7.3,30.04,East,96,0.0,11.0,43,0.00,,,0.00,meteohub,2013-03-19 21:07:00,
2013-03-19 17:12:00,26.8,6.8,30.03,ESE,107,4.0,11.0,42,0.00,,,0.00,meteohub,2013-03-19 21:12:00,
2013-03-19 17:18:00,27.0,7.0,30.03,East,101,5.0,11.0,42,0.00,,,0.00,meteohub,2013-03-19 21:18:00,
2013-03-19 17:23:00,27.0,7.5,30.03,SE,130,3.0,8.0,43,0.00,,,0.00,meteohub,2013-03-19 21:23:00,
2013-03-19 17:28:00,27.0,7.5,30.03,East,92,2.0,8.0,43,0.00,,,0.00,meteohub,2013-03-19 21:28:00,
2013-03-19 17:33:00,27.0,7.0,30.02,ESE,106,2.0,10.0,42,0.00,,,0.00,meteohub,2013-03-19 21:33:00,
2013-03-19 17:39:00,27.1,7.5,30.02,East,90,5.0,10.0,43,0.00,,,0.00,meteohub,2013-03-19 21:39:00,
2013-03-19 17:44:00,27.1,6.6,30.01,ESE,108,2.0,10.0,41,0.00,,,0.00,meteohub,2013-03-19 21:44:00,
2013-03-19 17:49:00,27.1,7.2,30.01,ENE,74,2.0,10.0,42,0.00,,,0.00,meteohub,2013-03-19 21:49:00,
2013-03-19 17:54:00,27.1,7.2,30.01,ENE,78,3.0,9.0,42,0.00,,,0.00,meteohub,2013-03-19 21:54:00,
2013-03-19 17:59:00,27.1,6.6,30.01,ESE,109,2.0,9.0,41,0.00,,,0.00,meteohub,2013-03-19 21:59:00,
2013-03-19 18:04:00,27.1,6.6,30.01,ESE,123,2.0,9.0,41,0.00,,,0.00,meteohub,2013-03-19 22:04:00,
2013-03-19 18:09:00,27.1,6.6,30.01,SE,129,2.0,7.0,41,0.00,,,0.00,meteohub,2013-03-19 22:09:00,
2013-03-19 18:15:00,27.1,6.6,30.01,ESE,123,3.0,7.0,41,0.00,,,0.00,meteohub,2013-03-19 22:15:00,
2013-03-19 18:20:00,27.1,6.6,30.00,SE,133,3.0,7.0,41,0.00,,,0.00,meteohub,2013-03-19 22:20:00,
2013-03-19 18:26:00,27.1,7.2,30.00,SE,142,0.0,5.0,42,0.00,,,0.00,meteohub,2013-03-19 22:26:00,
2013-03-19 18:32:00,27.1,7.2,30.01,SE,128,4.0,5.0,42,0.00,,,0.00,meteohub,2013-03-19 22:32:00,
2013-03-19 18:37:00,27.1,8.6,30.00,ESE,123,8.0,8.0,45,0.00,,,0.00,meteohub,2013-03-19 22:37:00,
2013-03-19 18:42:00,26.4,13.3,30.00,SSW,201,9.0,11.0,57,0.00,,,0.00,meteohub,2013-03-19 22:42:00,
2013-03-19 18:47:00,25.5,14.7,30.00,South,182,2.0,11.0,63,0.00,,,0.00,meteohub,2013-03-19 22:47:00,
2013-03-19 18:52:00,25.3,15.6,29.99,South,183,0.0,13.0,66,0.00,,,0.00,meteohub,2013-03-19 22:52:00,
2013-03-19 18:57:00,25.2,14.7,29.99,SE,138,0.0,13.0,64,0.00,,,0.00,meteohub,2013-03-19 22:57:00,
2013-03-19 19:02:00,25.2,13.6,29.99,SE,128,1.0,13.0,61,0.00,,,0.00,meteohub,2013-03-19 23:02:00,
2013-03-19 19:07:00,25.2,14.0,29.99,SE,128,0.0,8.0,62,0.00,,,0.00,meteohub,2013-03-19 23:07:00,
2013-03-19 19:12:00,25.3,13.8,29.99,SE,128,0.0,2.0,61,0.00,,,0.00,meteohub,2013-03-19 23:12:00,
2013-03-19 19:17:00,25.3,13.8,29.99,SE,128,0.0,2.0,61,0.00,,,0.00,meteohub,2013-03-19 23:17:00,
2013-03-19 19:22:00,25.3,14.9,29.98,SE,128,0.0,0.0,64,0.00,,,0.00,meteohub,2013-03-19 23:22:00,
2013-03-19 19:27:00,25.3,14.9,29.97,SE,128,0.0,0.0,64,0.00,,,0.00,meteohub,2013-03-19 23:27:00,
2013-03-19 19:32:00,25.2,14.7,29.97,SE,128,0.0,1.0,64,0.00,,,0.00,meteohub,2013-03-19 23:32:00,
2013-03-19 19:37:00,25.2,15.1,29.97,SE,128,0.0,1.0,65,0.00,,,0.00,meteohub,2013-03-19 23:37:00,
2013-03-19 19:42:00,25.2,15.1,29.96,SE,128,0.0,1.0,65,0.00,,,0.00,meteohub,2013-03-19 23:42:00,
2013-03-19 19:47:00,25.3,14.2,29.96,SE,145,0.0,7.0,62,0.00,,,0.00,meteohub,2013-03-19 23:47:00,
2013-03-19 19:52:00,25.5,12.7,29.96,SE,145,0.0,7.0,58,0.00,,,0.00,meteohub,2013-03-19 23:52:00,
2013-03-19 19:57:00,25.9,10.8,29.96,SE,140,5.0,7.0,52,0.00,,,0.00,meteohub,2013-03-19 23:57:00,
2013-03-19 20:03:00,26.4,9.9,29.96,SE,136,3.0,8.0,49,0.00,,,0.00,meteohub,2013-03-20 00:03:00,
2013-03-19 20:08:00,27.0,9.5,29.96,SE,136,4.0,8.0,47,0.00,,,0.00,meteohub,2013-03-20 00:08:00,
2013-03-19 20:13:00,27.1,8.6,29.95,East,96,6.0,8.0,45,0.00,,,0.00,meteohub,2013-03-20 00:13:00,
2013-03-19 20:18:00,27.1,9.5,29.95,ESE,111,11.0,11.0,47,0.00,,,0.00,meteohub,2013-03-20 00:18:00,
2013-03-19 20:23:00,27.1,9.1,29.96,SE,130,4.0,11.0,46,0.00,,,0.00,meteohub,2013-03-20 00:23:00,
2013-03-19 20:29:00,27.0,9.0,29.96,SE,128,7.0,11.0,46,0.00,,,0.00,meteohub,2013-03-20 00:29:00,
2013-03-19 20:34:00,27.0,9.5,29.95,SSE,158,2.0,11.0,47,0.00,,,0.00,meteohub,2013-03-20 00:34:00,
2013-03-19 20:39:00,27.0,9.0,29.94,ESE,115,3.0,10.0,46,0.00,,,0.00,meteohub,2013-03-20 00:39:00,
2013-03-19 20:44:00,26.8,9.3,29.94,SE,127,3.0,10.0,47,0.00,,,0.00,meteohub,2013-03-20 00:44:00,
2013-03-19 20:50:00,26.8,9.3,29.93,ESE,112,4.0,10.0,47,0.00,,,0.00,meteohub,2013-03-20 00:50:00,
2013-03-19 20:55:00,26.6,10.0,29.93,ESE,107,3.0,9.0,49,0.00,,,0.00,meteohub,2013-03-20 00:55:00,
2013-03-19 21:00:00,26.4,9.9,29.94,ESE,112,1.0,9.0,49,0.00,,,0.00,meteohub,2013-03-20 01:00:00,
2013-03-19 21:05:00,26.4,9.9,29.94,SE,126,4.0,7.0,49,0.00,,,0.00,meteohub,2013-03-20 01:05:00,
2013-03-19 21:10:00,26.4,9.9,29.94,ESE,119,4.0,8.0,49,0.00,,,0.00,meteohub,2013-03-20 01:10:00,
2013-03-19 21:17:00,26.4,9.9,29.94,SE,139,6.0,10.0,49,0.00,,,0.00,meteohub,2013-03-20 01:17:00,
2013-03-19 21:22:00,26.2,9.1,29.94,ESE,116,5.0,10.0,48,0.00,,,0.00,meteohub,2013-03-20 01:22:00,
2013-03-19 21:27:00,26.2,10.2,29.94,East,101,3.0,13.0,50,0.00,,,0.00,meteohub,2013-03-20 01:27:00,
2013-03-19 21:32:00,26.1,10.4,29.93,SE,125,2.0,13.0,51,0.00,,,0.00,meteohub,2013-03-20 01:32:00,
2013-03-19 21:37:00,26.1,10.4,29.93,SSE,148,7.0,8.0,51,0.00,,,0.00,meteohub,2013-03-20 01:37:00,
2013-03-19 21:42:00,25.9,10.2,29.94,SSE,154,2.0,8.0,51,0.00,,,0.00,meteohub,2013-03-20 01:42:00,
2013-03-19 21:47:00,25.9,10.8,29.94,East,96,7.0,8.0,52,0.00,,,0.00,meteohub,2013-03-20 01:47:00,
2013-03-19 21:52:00,25.7,10.0,29.94,SE,128,2.0,11.0,51,0.00,,,0.00,meteohub,2013-03-20 01:52:00,
2013-03-19 21:57:00,25.5,9.9,29.93,East,97,6.0,11.0,51,0.00,,,0.00,meteohub,2013-03-20 01:57:00,
2013-03-19 22:02:00,25.3,10.2,29.93,SW,220,2.0,11.0,52,0.00,,,0.00,meteohub,2013-03-20 02:02:00,
2013-03-19 22:07:00,25.3,10.2,29.93,SSE,150,4.0,11.0,52,0.00,,,0.00,meteohub,2013-03-20 02:07:00,
2013-03-19 22:12:00,25.2,10.0,29.92,ESE,116,3.0,13.0,52,0.00,,,0.00,meteohub,2013-03-20 02:12:00,
2013-03-19 22:17:00,25.0,10.2,29.91,ESE,105,1.0,13.0,53,0.00,,,0.00,meteohub,2013-03-20 02:17:00,
2013-03-19 22:23:00,24.8,10.0,29.91,East,80,6.0,9.0,53,0.00,,,0.00,meteohub,2013-03-20 02:23:00,
2013-03-19 22:28:00,24.6,10.4,29.91,ESE,111,2.0,10.0,54,0.00,,,0.00,meteohub,2013-03-20 02:28:00,
2013-03-19 22:33:00,24.6,10.8,29.91,SE,136,3.0,10.0,55,0.00,,,0.00,meteohub,2013-03-20 02:33:00,
2013-03-19 22:39:00,24.4,10.9,29.91,SE,127,8.0,8.0,56,0.00,,,0.00,meteohub,2013-03-20 02:39:00,
2013-03-19 22:44:00,23.7,14.0,29.91,SE,124,9.0,11.0,66,0.00,,,0.00,meteohub,2013-03-20 02:44:00,
2013-03-19 22:49:00,22.6,15.3,29.92,SE,127,5.0,17.0,73,0.00,,,0.00,meteohub,2013-03-20 02:49:00,
2013-03-19 22:54:00,21.6,16.3,29.92,ESE,121,11.0,17.0,80,0.00,,,0.00,meteohub,2013-03-20 02:54:00,
2013-03-19 22:59:00,21.0,16.9,29.91,ESE,123,10.0,17.0,84,0.00,,,0.00,meteohub,2013-03-20 02:59:00,
2013-03-19 23:05:00,20.7,17.1,29.91,ESE,104,0.0,15.0,86,0.00,,,0.00,meteohub,2013-03-20 03:05:00,
2013-03-19 23:10:00,20.5,17.2,29.90,SE,130,2.0,13.0,87,0.00,,,0.00,meteohub,2013-03-20 03:10:00,
2013-03-19 23:15:00,20.1,16.9,29.90,SE,132,2.0,10.0,87,0.00,,,0.00,meteohub,2013-03-20 03:15:00,
2013-03-19 23:20:00,20.1,17.1,29.90,SE,131,1.0,8.0,88,0.00,,,0.00,meteohub,2013-03-20 03:20:00,
2013-03-19 23:25:00,19.9,16.9,29.89,SSE,156,2.0,4.0,88,0.00,,,0.00,meteohub,2013-03-20 03:25:00,
2013-03-19 23:31:00,19.9,16.9,29.89,South,175,0.0,4.0,88,0.00,,,0.00,meteohub,2013-03-20 03:31:00,
2013-03-19 23:37:00,19.9,16.9,29.89,SSW,198,0.0,3.0,88,0.00,,,0.00,meteohub,2013-03-20 03:37:00,
2013-03-19 23:42:00,19.9,16.9,29.88,SSW,198,0.0,3.0,88,0.00,,,0.00,meteohub,2013-03-20 03:42:00,
2013-03-19 23:48:00,19.9,16.9,29.88,SSW,198,0.0,3.0,88,0.00,,,0.00,meteohub,2013-03-20 03:48:00,
2013-03-19 23:53:00,19.9,16.9,29.88,SSW,198,0.0,2.0,88,0.00,,,0.00,meteohub,2013-03-20 03:53:00,
2013-03-19 23:58:00,19.9,16.9,29.88,SSW,198,0.0,2.0,88,0.00,,,0.00,meteohub,2013-03-20 03:58:00,